sensor_id;sensor_type;location;lat;lon;timestamp;P1;durP1;ratioP1;P2;durP2;ratioP2
3193;SDS011;1608;50.860;13.466;2022-12-18T00:00:12;15.83;;;7.27;;
3193;SDS011;1608;50.860;13.466;2022-12-18T00:02:39;11.93;;;4.53;;
3193;SDS011;1608;50.860;13.466;2022-12-18T00:05:08;16.40;;;5.93;;
3193;SDS011;1608;50.860;13.466;2022-12-18T00:07:35;14.40;;;4.17;;
3193;SDS011;1608;50.860;13.466;2022-12-18T00:10:02;16.67;;;6.97;;
3193;SDS011;1608;50.860;13.466;2022-12-18T00:12:29;13.33;;;7.27;;
3193;SDS011;1608;50.860;13.466;2022-12-18T00:14:56;17.30;;;7.10;;
3193;SDS011;1608;50.860;13.466;2022-12-18T00:17:23;3.37;;;2.17;;
3193;SDS011;1608;50.860;13.466;2022-12-18T00:19:50;6.47;;;3.27;;
3193;SDS011;1608;50.860;13.466;2022-12-18T00:22:18;17.93;;;7.87;;
3193;SDS011;1608;50.860;13.466;2022-12-18T00:24:45;14.53;;;6.53;;
3193;SDS011;1608;50.860;13.466;2022-12-18T00:27:12;21.17;;;8.40;;
3193;SDS011;1608;50.860;13.466;2022-12-18T00:29:41;8.67;;;3.00;;
3193;SDS011;1608;50.860;13.466;2022-12-18T00:32:08;10.87;;;5.83;;
3193;SDS011;1608;50.860;13.466;2022-12-18T00:34:35;18.87;;;6.23;;
3193;SDS011;1608;50.860;13.466;2022-12-18T00:37:02;12.20;;;6.43;;
3193;SDS011;1608;50.860;13.466;2022-12-18T00:39:30;19.13;;;10.03;;
3193;SDS011;1608;50.860;13.466;2022-12-18T00:41:57;23.25;;;9.88;;
3193;SDS011;1608;50.860;13.466;2022-12-18T00:44:40;12.93;;;6.63;;
3193;SDS011;1608;50.860;13.466;2022-12-18T00:47:07;28.43;;;9.60;;
3193;SDS011;1608;50.860;13.466;2022-12-18T00:49:34;11.97;;;7.53;;
3193;SDS011;1608;50.860;13.466;2022-12-18T00:52:01;10.03;;;4.13;;
3193;SDS011;1608;50.860;13.466;2022-12-18T00:54:28;9.23;;;5.13;;
3193;SDS011;1608;50.860;13.466;2022-12-18T00:56:56;6.57;;;4.80;;
3193;SDS011;1608;50.860;13.466;2022-12-18T00:59:23;15.87;;;7.47;;
3193;SDS011;1608;50.860;13.466;2022-12-18T01:01:49;23.63;;;7.00;;
3193;SDS011;1608;50.860;13.466;2022-12-18T01:04:16;6.30;;;5.53;;
3193;SDS011;1608;50.860;13.466;2022-12-18T01:06:43;16.50;;;9.23;;
3193;SDS011;1608;50.860;13.466;2022-12-18T01:09:10;15.13;;;6.63;;
3193;SDS011;1608;50.860;13.466;2022-12-18T01:11:37;1.70;;;1.60;;
3193;SDS011;1608;50.860;13.466;2022-12-18T01:14:05;13.07;;;6.13;;
3193;SDS011;1608;50.860;13.466;2022-12-18T01:16:31;4.97;;;3.20;;
3193;SDS011;1608;50.860;13.466;2022-12-18T01:18:58;13.80;;;5.10;;
3193;SDS011;1608;50.860;13.466;2022-12-18T01:21:25;11.13;;;6.13;;
3193;SDS011;1608;50.860;13.466;2022-12-18T01:23:52;23.00;;;7.60;;
3193;SDS011;1608;50.860;13.466;2022-12-18T01:26:20;22.27;;;7.03;;
3193;SDS011;1608;50.860;13.466;2022-12-18T01:28:47;29.53;;;9.50;;
3193;SDS011;1608;50.860;13.466;2022-12-18T01:31:17;20.40;;;8.33;;
3193;SDS011;1608;50.860;13.466;2022-12-18T01:33:48;10.80;;;4.67;;
3193;SDS011;1608;50.860;13.466;2022-12-18T01:36:16;21.15;;;10.18;;
3193;SDS011;1608;50.860;13.466;2022-12-18T01:38:45;20.92;;;8.38;;
3193;SDS011;1608;50.860;13.466;2022-12-18T01:41:12;6.27;;;5.67;;
3193;SDS011;1608;50.860;13.466;2022-12-18T01:43:40;9.37;;;7.27;;
3193;SDS011;1608;50.860;13.466;2022-12-18T01:46:17;18.93;;;6.50;;
3193;SDS011;1608;50.860;13.466;2022-12-18T01:48:46;2.03;;;1.93;;
3193;SDS011;1608;50.860;13.466;2022-12-18T01:51:15;4.30;;;2.17;;
3193;SDS011;1608;50.860;13.466;2022-12-18T01:53:42;11.93;;;5.83;;
3193;SDS011;1608;50.860;13.466;2022-12-18T01:56:12;13.40;;;7.57;;
3193;SDS011;1608;50.860;13.466;2022-12-18T01:58:43;3.30;;;2.27;;
3193;SDS011;1608;50.860;13.466;2022-12-18T02:01:17;10.27;;;4.13;;
3193;SDS011;1608;50.860;13.466;2022-12-18T02:03:45;1.90;;;1.80;;
3193;SDS011;1608;50.860;13.466;2022-12-18T02:06:13;3.27;;;2.43;;
3193;SDS011;1608;50.860;13.466;2022-12-18T02:08:48;1.33;;;1.17;;
3193;SDS011;1608;50.860;13.466;2022-12-18T02:11:26;3.47;;;1.55;;
3193;SDS011;1608;50.860;13.466;2022-12-18T02:14:04;13.30;;;6.40;;
3193;SDS011;1608;50.860;13.466;2022-12-18T02:16:39;8.23;;;4.53;;
3193;SDS011;1608;50.860;13.466;2022-12-18T02:19:16;9.63;;;5.23;;
3193;SDS011;1608;50.860;13.466;2022-12-18T02:21:56;2.53;;;1.97;;
3193;SDS011;1608;50.860;13.466;2022-12-18T02:24:33;19.37;;;5.73;;
3193;SDS011;1608;50.860;13.466;2022-12-18T02:27:05;16.52;;;6.00;;
3193;SDS011;1608;50.860;13.466;2022-12-18T02:29:34;11.27;;;2.75;;
3193;SDS011;1608;50.860;13.466;2022-12-18T02:32:05;3.03;;;2.03;;
3193;SDS011;1608;50.860;13.466;2022-12-18T02:34:36;7.13;;;2.53;;
3193;SDS011;1608;50.860;13.466;2022-12-18T02:37:06;11.88;;;3.70;;
3193;SDS011;1608;50.860;13.466;2022-12-18T02:39:37;3.03;;;2.50;;
3193;SDS011;1608;50.860;13.466;2022-12-18T02:42:07;8.23;;;4.03;;
3193;SDS011;1608;50.860;13.466;2022-12-18T02:44:34;5.53;;;4.68;;
3193;SDS011;1608;50.860;13.466;2022-12-18T02:47:01;3.17;;;1.85;;
3193;SDS011;1608;50.860;13.466;2022-12-18T02:49:31;1.15;;;1.08;;
3193;SDS011;1608;50.860;13.466;2022-12-18T02:52:07;6.20;;;4.70;;
3193;SDS011;1608;50.860;13.466;2022-12-18T02:54:51;10.50;;;4.53;;
3193;SDS011;1608;50.860;13.466;2022-12-18T02:57:32;6.68;;;2.80;;
3193;SDS011;1608;50.860;13.466;2022-12-18T03:00:04;2.70;;;2.50;;
3193;SDS011;1608;50.860;13.466;2022-12-18T03:02:35;9.18;;;4.40;;
3193;SDS011;1608;50.860;13.466;2022-12-18T03:05:07;12.97;;;5.83;;
3193;SDS011;1608;50.860;13.466;2022-12-18T03:07:39;0.60;;;0.40;;
3193;SDS011;1608;50.860;13.466;2022-12-18T03:10:11;2.50;;;2.30;;
3193;SDS011;1608;50.860;13.466;2022-12-18T03:12:43;8.20;;;3.27;;
3193;SDS011;1608;50.860;13.466;2022-12-18T03:15:14;5.38;;;3.85;;
3193;SDS011;1608;50.860;13.466;2022-12-18T03:17:48;2.80;;;2.30;;
3193;SDS011;1608;50.860;13.466;2022-12-18T03:20:19;6.43;;;3.50;;
3193;SDS011;1608;50.860;13.466;2022-12-18T03:22:49;3.20;;;1.95;;
3193;SDS011;1608;50.860;13.466;2022-12-18T03:25:20;9.20;;;3.58;;
3193;SDS011;1608;50.860;13.466;2022-12-18T03:27:49;2.45;;;2.28;;
3193;SDS011;1608;50.860;13.466;2022-12-18T03:30:20;1.63;;;1.53;;
3193;SDS011;1608;50.860;13.466;2022-12-18T03:32:47;8.07;;;3.88;;
3193;SDS011;1608;50.860;13.466;2022-12-18T03:35:19;4.32;;;2.63;;
3193;SDS011;1608;50.860;13.466;2022-12-18T03:37:50;13.75;;;6.57;;
3193;SDS011;1608;50.860;13.466;2022-12-18T03:40:17;3.72;;;2.85;;
3193;SDS011;1608;50.860;13.466;2022-12-18T03:42:46;9.63;;;4.53;;
3193;SDS011;1608;50.860;13.466;2022-12-18T03:45:19;9.30;;;2.67;;
3193;SDS011;1608;50.860;13.466;2022-12-18T03:47:53;3.40;;;2.65;;
3193;SDS011;1608;50.860;13.466;2022-12-18T03:50:29;9.67;;;3.30;;
3193;SDS011;1608;50.860;13.466;2022-12-18T03:53:05;5.38;;;3.20;;
3193;SDS011;1608;50.860;13.466;2022-12-18T03:55:43;13.93;;;5.82;;
3193;SDS011;1608;50.860;13.466;2022-12-18T03:58:13;8.10;;;3.47;;
3193;SDS011;1608;50.860;13.466;2022-12-18T04:00:44;3.72;;;3.42;;
3193;SDS011;1608;50.860;13.466;2022-12-18T04:03:13;2.10;;;1.23;;
3193;SDS011;1608;50.860;13.466;2022-12-18T04:05:42;7.33;;;3.20;;
3193;SDS011;1608;50.860;13.466;2022-12-18T04:08:10;1.83;;;1.73;;
3193;SDS011;1608;50.860;13.466;2022-12-18T04:10:37;3.38;;;2.05;;
3193;SDS011;1608;50.860;13.466;2022-12-18T04:13:03;3.10;;;1.08;;
3193;SDS011;1608;50.860;13.466;2022-12-18T04:15:32;9.73;;;2.83;;
3193;SDS011;1608;50.860;13.466;2022-12-18T04:18:01;3.92;;;2.15;;
3193;SDS011;1608;50.860;13.466;2022-12-18T04:20:28;0.90;;;0.70;;
3193;SDS011;1608;50.860;13.466;2022-12-18T04:22:55;2.22;;;0.98;;
3193;SDS011;1608;50.860;13.466;2022-12-18T04:25:22;9.20;;;2.08;;
3193;SDS011;1608;50.860;13.466;2022-12-18T04:27:49;4.93;;;2.80;;
3193;SDS011;1608;50.860;13.466;2022-12-18T04:30:15;5.30;;;2.15;;
3193;SDS011;1608;50.860;13.466;2022-12-18T04:32:44;3.03;;;2.15;;
3193;SDS011;1608;50.860;13.466;2022-12-18T04:35:10;5.68;;;3.00;;
3193;SDS011;1608;50.860;13.466;2022-12-18T04:37:37;3.28;;;2.55;;
3193;SDS011;1608;50.860;13.466;2022-12-18T04:40:05;5.87;;;1.33;;
3193;SDS011;1608;50.860;13.466;2022-12-18T04:42:32;9.95;;;1.70;;
3193;SDS011;1608;50.860;13.466;2022-12-18T04:44:59;6.85;;;6.15;;
3193;SDS011;1608;50.860;13.466;2022-12-18T04:47:26;2.60;;;1.70;;
3193;SDS011;1608;50.860;13.466;2022-12-18T04:49:54;7.63;;;2.42;;
3193;SDS011;1608;50.860;13.466;2022-12-18T04:52:21;1.98;;;1.73;;
3193;SDS011;1608;50.860;13.466;2022-12-18T04:54:47;3.55;;;1.80;;
3193;SDS011;1608;50.860;13.466;2022-12-18T04:57:14;8.05;;;4.50;;
3193;SDS011;1608;50.860;13.466;2022-12-18T04:59:43;15.65;;;4.13;;
3193;SDS011;1608;50.860;13.466;2022-12-18T05:02:10;10.30;;;3.80;;
3193;SDS011;1608;50.860;13.466;2022-12-18T05:04:36;10.18;;;2.97;;
3193;SDS011;1608;50.860;13.466;2022-12-18T05:07:05;6.53;;;5.13;;
3193;SDS011;1608;50.860;13.466;2022-12-18T05:09:31;2.95;;;2.30;;
3193;SDS011;1608;50.860;13.466;2022-12-18T05:11:58;3.17;;;2.35;;
3193;SDS011;1608;50.860;13.466;2022-12-18T05:14:25;4.53;;;3.30;;
3193;SDS011;1608;50.860;13.466;2022-12-18T05:16:52;3.25;;;2.55;;
3193;SDS011;1608;50.860;13.466;2022-12-18T05:19:19;4.47;;;2.45;;
3193;SDS011;1608;50.860;13.466;2022-12-18T05:21:46;2.28;;;1.10;;
3193;SDS011;1608;50.860;13.466;2022-12-18T05:24:14;3.30;;;3.00;;
3193;SDS011;1608;50.860;13.466;2022-12-18T05:26:41;5.80;;;2.85;;
3193;SDS011;1608;50.860;13.466;2022-12-18T05:29:07;8.57;;;2.70;;
3193;SDS011;1608;50.860;13.466;2022-12-18T05:31:37;9.68;;;2.40;;
3193;SDS011;1608;50.860;13.466;2022-12-18T05:34:04;2.15;;;1.58;;
3193;SDS011;1608;50.860;13.466;2022-12-18T05:36:31;1.73;;;1.20;;
3193;SDS011;1608;50.860;13.466;2022-12-18T05:38:58;7.88;;;2.53;;
3193;SDS011;1608;50.860;13.466;2022-12-18T05:41:26;1.92;;;1.15;;
3193;SDS011;1608;50.860;13.466;2022-12-18T05:43:53;5.43;;;3.92;;
3193;SDS011;1608;50.860;13.466;2022-12-18T05:46:20;3.53;;;2.15;;
3193;SDS011;1608;50.860;13.466;2022-12-18T05:48:47;3.78;;;3.20;;
3193;SDS011;1608;50.860;13.466;2022-12-18T05:51:15;7.38;;;1.50;;
3193;SDS011;1608;50.860;13.466;2022-12-18T05:53:43;3.08;;;1.45;;
3193;SDS011;1608;50.860;13.466;2022-12-18T05:56:12;8.90;;;2.58;;
3193;SDS011;1608;50.860;13.466;2022-12-18T05:58:41;1.58;;;1.48;;
3193;SDS011;1608;50.860;13.466;2022-12-18T06:01:09;0.93;;;0.93;;
3193;SDS011;1608;50.860;13.466;2022-12-18T06:03:38;3.05;;;2.60;;
3193;SDS011;1608;50.860;13.466;2022-12-18T06:06:12;1.50;;;1.40;;
3193;SDS011;1608;50.860;13.466;2022-12-18T06:08:39;0.90;;;0.80;;
3193;SDS011;1608;50.860;13.466;2022-12-18T06:11:06;3.10;;;2.38;;
3193;SDS011;1608;50.860;13.466;2022-12-18T06:13:33;1.60;;;1.15;;
3193;SDS011;1608;50.860;13.466;2022-12-18T06:16:02;3.20;;;2.35;;
3193;SDS011;1608;50.860;13.466;2022-12-18T06:18:29;2.58;;;1.35;;
3193;SDS011;1608;50.860;13.466;2022-12-18T06:20:56;2.60;;;2.40;;
3193;SDS011;1608;50.860;13.466;2022-12-18T06:23:24;0.90;;;0.80;;
3193;SDS011;1608;50.860;13.466;2022-12-18T06:25:51;1.90;;;1.50;;
3193;SDS011;1608;50.860;13.466;2022-12-18T06:28:18;4.50;;;3.13;;
3193;SDS011;1608;50.860;13.466;2022-12-18T06:30:45;2.67;;;2.47;;
3193;SDS011;1608;50.860;13.466;2022-12-18T06:33:14;3.97;;;3.70;;
3193;SDS011;1608;50.860;13.466;2022-12-18T06:35:42;1.40;;;1.30;;
3193;SDS011;1608;50.860;13.466;2022-12-18T06:38:08;1.95;;;1.00;;
3193;SDS011;1608;50.860;13.466;2022-12-18T06:40:36;4.13;;;2.70;;
3193;SDS011;1608;50.860;13.466;2022-12-18T06:43:03;5.57;;;3.70;;
3193;SDS011;1608;50.860;13.466;2022-12-18T06:45:30;1.65;;;0.93;;
3193;SDS011;1608;50.860;13.466;2022-12-18T06:47:57;1.50;;;1.40;;
3193;SDS011;1608;50.860;13.466;2022-12-18T06:50:25;6.00;;;3.65;;
3193;SDS011;1608;50.860;13.466;2022-12-18T06:52:52;9.60;;;3.53;;
3193;SDS011;1608;50.860;13.466;2022-12-18T06:55:18;6.13;;;4.25;;
3193;SDS011;1608;50.860;13.466;2022-12-18T06:57:45;4.55;;;2.13;;
3193;SDS011;1608;50.860;13.466;2022-12-18T07:00:12;5.07;;;3.75;;
3193;SDS011;1608;50.860;13.466;2022-12-18T07:02:39;5.32;;;3.35;;
3193;SDS011;1608;50.860;13.466;2022-12-18T07:05:06;10.73;;;5.30;;
3193;SDS011;1608;50.860;13.466;2022-12-18T07:07:35;6.93;;;4.30;;
3193;SDS011;1608;50.860;13.466;2022-12-18T07:10:02;1.85;;;1.75;;
3193;SDS011;1608;50.860;13.466;2022-12-18T07:12:29;3.85;;;1.98;;
3193;SDS011;1608;50.860;13.466;2022-12-18T07:14:56;2.58;;;2.40;;
3193;SDS011;1608;50.860;13.466;2022-12-18T07:17:23;0.70;;;0.65;;
3193;SDS011;1608;50.860;13.466;2022-12-18T07:19:49;14.77;;;5.03;;
3193;SDS011;1608;50.860;13.466;2022-12-18T07:22:16;16.55;;;6.25;;
3193;SDS011;1608;50.860;13.466;2022-12-18T07:24:44;1.85;;;1.52;;
3193;SDS011;1608;50.860;13.466;2022-12-18T07:27:11;17.88;;;5.53;;
3193;SDS011;1608;50.860;13.466;2022-12-18T07:29:38;11.82;;;5.03;;
3193;SDS011;1608;50.860;13.466;2022-12-18T07:32:05;8.85;;;4.40;;
3193;SDS011;1608;50.860;13.466;2022-12-18T07:34:32;11.13;;;3.65;;
3193;SDS011;1608;50.860;13.466;2022-12-18T07:36:59;4.80;;;4.40;;
3193;SDS011;1608;50.860;13.466;2022-12-18T07:39:26;7.13;;;5.38;;
3193;SDS011;1608;50.860;13.466;2022-12-18T07:41:54;10.50;;;5.25;;
3193;SDS011;1608;50.860;13.466;2022-12-18T07:44:38;6.25;;;2.65;;
3193;SDS011;1608;50.860;13.466;2022-12-18T07:47:05;6.18;;;3.92;;
3193;SDS011;1608;50.860;13.466;2022-12-18T07:49:32;11.65;;;7.25;;
3193;SDS011;1608;50.860;13.466;2022-12-18T07:51:59;5.63;;;5.13;;
3193;SDS011;1608;50.860;13.466;2022-12-18T07:54:26;17.00;;;7.53;;
3193;SDS011;1608;50.860;13.466;2022-12-18T07:56:54;7.40;;;4.55;;
3193;SDS011;1608;50.860;13.466;2022-12-18T07:59:21;13.80;;;4.10;;
3193;SDS011;1608;50.860;13.466;2022-12-18T08:01:48;15.98;;;7.40;;
3193;SDS011;1608;50.860;13.466;2022-12-18T08:04:15;17.13;;;8.30;;
3193;SDS011;1608;50.860;13.466;2022-12-18T08:06:42;21.53;;;7.27;;
3193;SDS011;1608;50.860;13.466;2022-12-18T08:09:09;34.43;;;8.30;;
3193;SDS011;1608;50.860;13.466;2022-12-18T08:11:36;34.10;;;12.20;;
3193;SDS011;1608;50.860;13.466;2022-12-18T08:14:05;31.67;;;17.47;;
3193;SDS011;1608;50.860;13.466;2022-12-18T08:16:32;20.33;;;10.90;;
3193;SDS011;1608;50.860;13.466;2022-12-18T08:18:58;24.83;;;9.80;;
3193;SDS011;1608;50.860;13.466;2022-12-18T08:21:26;33.93;;;16.70;;
3193;SDS011;1608;50.860;13.466;2022-12-18T08:23:55;26.70;;;13.63;;
3193;SDS011;1608;50.860;13.466;2022-12-18T08:26:23;28.70;;;12.67;;
3193;SDS011;1608;50.860;13.466;2022-12-18T08:28:51;26.10;;;12.23;;
3193;SDS011;1608;50.860;13.466;2022-12-18T08:31:20;33.73;;;13.67;;
3193;SDS011;1608;50.860;13.466;2022-12-18T08:33:48;23.77;;;13.43;;
3193;SDS011;1608;50.860;13.466;2022-12-18T08:36:16;19.33;;;13.57;;
3193;SDS011;1608;50.860;13.466;2022-12-18T08:38:43;41.13;;;13.30;;
3193;SDS011;1608;50.860;13.466;2022-12-18T08:41:10;27.10;;;13.80;;
3193;SDS011;1608;50.860;13.466;2022-12-18T08:43:38;33.90;;;15.07;;
3193;SDS011;1608;50.860;13.466;2022-12-18T08:46:24;32.17;;;14.40;;
3193;SDS011;1608;50.860;13.466;2022-12-18T08:48:53;34.97;;;18.93;;
3193;SDS011;1608;50.860;13.466;2022-12-18T08:51:20;20.97;;;12.00;;
3193;SDS011;1608;50.860;13.466;2022-12-18T08:53:47;30.30;;;14.43;;
3193;SDS011;1608;50.860;13.466;2022-12-18T08:56:14;23.00;;;10.90;;
3193;SDS011;1608;50.860;13.466;2022-12-18T08:58:41;27.33;;;11.00;;
3193;SDS011;1608;50.860;13.466;2022-12-18T09:01:09;19.07;;;11.90;;
3193;SDS011;1608;50.860;13.466;2022-12-18T09:03:39;18.87;;;8.90;;
3193;SDS011;1608;50.860;13.466;2022-12-18T09:06:06;27.53;;;10.03;;
3193;SDS011;1608;50.860;13.466;2022-12-18T09:08:33;25.83;;;9.70;;
3193;SDS011;1608;50.860;13.466;2022-12-18T09:11:01;15.53;;;7.73;;
3193;SDS011;1608;50.860;13.466;2022-12-18T09:13:28;19.63;;;6.37;;
3193;SDS011;1608;50.860;13.466;2022-12-18T09:15:55;21.63;;;10.17;;
3193;SDS011;1608;50.860;13.466;2022-12-18T09:18:23;23.63;;;8.30;;
3193;SDS011;1608;50.860;13.466;2022-12-18T09:20:51;19.37;;;8.23;;
3193;SDS011;1608;50.860;13.466;2022-12-18T09:23:18;16.47;;;8.40;;
3193;SDS011;1608;50.860;13.466;2022-12-18T09:25:45;22.60;;;9.33;;
3193;SDS011;1608;50.860;13.466;2022-12-18T09:28:13;16.50;;;8.40;;
3193;SDS011;1608;50.860;13.466;2022-12-18T09:30:42;17.07;;;9.73;;
3193;SDS011;1608;50.860;13.466;2022-12-18T09:33:12;17.50;;;9.00;;
3193;SDS011;1608;50.860;13.466;2022-12-18T09:35:39;26.53;;;9.47;;
3193;SDS011;1608;50.860;13.466;2022-12-18T09:38:08;15.67;;;8.00;;
3193;SDS011;1608;50.860;13.466;2022-12-18T09:40:40;16.50;;;7.53;;
3193;SDS011;1608;50.860;13.466;2022-12-18T09:43:12;22.53;;;9.90;;
3193;SDS011;1608;50.860;13.466;2022-12-18T09:45:43;19.73;;;10.53;;
3193;SDS011;1608;50.860;13.466;2022-12-18T09:48:14;12.53;;;8.70;;
3193;SDS011;1608;50.860;13.466;2022-12-18T09:50:44;15.17;;;7.17;;
3193;SDS011;1608;50.860;13.466;2022-12-18T09:53:14;21.17;;;7.80;;
3193;SDS011;1608;50.860;13.466;2022-12-18T09:55:46;21.77;;;11.20;;
3193;SDS011;1608;50.860;13.466;2022-12-18T09:58:15;12.60;;;7.90;;
3193;SDS011;1608;50.860;13.466;2022-12-18T10:00:51;22.03;;;9.03;;
3193;SDS011;1608;50.860;13.466;2022-12-18T10:03:18;13.07;;;5.07;;
3193;SDS011;1608;50.860;13.466;2022-12-18T10:05:47;19.90;;;9.63;;
3193;SDS011;1608;50.860;13.466;2022-12-18T10:08:27;20.47;;;10.77;;
3193;SDS011;1608;50.860;13.466;2022-12-18T10:11:03;30.07;;;10.87;;
3193;SDS011;1608;50.860;13.466;2022-12-18T10:13:47;20.07;;;10.00;;
3193;SDS011;1608;50.860;13.466;2022-12-18T10:16:21;25.50;;;9.30;;
3193;SDS011;1608;50.860;13.466;2022-12-18T10:19:10;18.27;;;10.97;;
3193;SDS011;1608;50.860;13.466;2022-12-18T10:21:51;16.03;;;8.50;;
3193;SDS011;1608;50.860;13.466;2022-12-18T10:24:32;18.63;;;7.77;;
3193;SDS011;1608;50.860;13.466;2022-12-18T10:27:09;20.10;;;10.63;;
3193;SDS011;1608;50.860;13.466;2022-12-18T10:29:41;9.27;;;5.17;;
3193;SDS011;1608;50.860;13.466;2022-12-18T10:32:09;23.30;;;8.20;;
3193;SDS011;1608;50.860;13.466;2022-12-18T10:34:41;16.20;;;7.23;;
3193;SDS011;1608;50.860;13.466;2022-12-18T10:37:11;11.97;;;5.80;;
3193;SDS011;1608;50.860;13.466;2022-12-18T10:39:43;11.33;;;6.77;;
3193;SDS011;1608;50.860;13.466;2022-12-18T10:42:13;10.37;;;6.60;;
3193;SDS011;1608;50.860;13.466;2022-12-18T10:44:43;3.87;;;2.60;;
3193;SDS011;1608;50.860;13.466;2022-12-18T10:47:11;20.20;;;6.63;;
3193;SDS011;1608;50.860;13.466;2022-12-18T10:49:42;9.30;;;5.27;;
3193;SDS011;1608;50.860;13.466;2022-12-18T10:52:15;17.67;;;7.90;;
3193;SDS011;1608;50.860;13.466;2022-12-18T10:54:48;11.80;;;6.93;;
3193;SDS011;1608;50.860;13.466;2022-12-18T10:57:20;15.43;;;6.50;;
3193;SDS011;1608;50.860;13.466;2022-12-18T10:59:58;11.00;;;4.20;;
3193;SDS011;1608;50.860;13.466;2022-12-18T11:02:28;13.77;;;6.03;;
3193;SDS011;1608;50.860;13.466;2022-12-18T11:05:01;12.83;;;5.97;;
3193;SDS011;1608;50.860;13.466;2022-12-18T11:07:40;15.60;;;7.90;;
3193;SDS011;1608;50.860;13.466;2022-12-18T11:10:16;14.17;;;7.67;;
3193;SDS011;1608;50.860;13.466;2022-12-18T11:12:44;15.23;;;6.90;;
3193;SDS011;1608;50.860;13.466;2022-12-18T11:15:15;17.50;;;6.63;;
3193;SDS011;1608;50.860;13.466;2022-12-18T11:17:44;10.70;;;6.73;;
3193;SDS011;1608;50.860;13.466;2022-12-18T11:20:27;9.60;;;4.73;;
3193;SDS011;1608;50.860;13.466;2022-12-18T11:22:58;9.40;;;5.30;;
3193;SDS011;1608;50.860;13.466;2022-12-18T11:25:27;18.53;;;10.27;;
3193;SDS011;1608;50.860;13.466;2022-12-18T11:27:56;13.30;;;9.00;;
3193;SDS011;1608;50.860;13.466;2022-12-18T11:30:25;13.33;;;4.90;;
3193;SDS011;1608;50.860;13.466;2022-12-18T11:32:58;14.40;;;6.80;;
3193;SDS011;1608;50.860;13.466;2022-12-18T11:35:37;12.40;;;7.40;;
3193;SDS011;1608;50.860;13.466;2022-12-18T11:38:14;15.00;;;7.50;;
3193;SDS011;1608;50.860;13.466;2022-12-18T11:40:50;9.90;;;5.37;;
3193;SDS011;1608;50.860;13.466;2022-12-18T11:43:23;9.50;;;4.50;;
3193;SDS011;1608;50.860;13.466;2022-12-18T11:45:54;12.40;;;5.03;;
3193;SDS011;1608;50.860;13.466;2022-12-18T11:48:26;9.70;;;5.20;;
3193;SDS011;1608;50.860;13.466;2022-12-18T11:50:56;12.60;;;7.53;;
3193;SDS011;1608;50.860;13.466;2022-12-18T11:53:25;16.70;;;7.00;;
3193;SDS011;1608;50.860;13.466;2022-12-18T11:55:58;12.63;;;6.30;;
3193;SDS011;1608;50.860;13.466;2022-12-18T12:01:16;11.47;;;4.97;;
3193;SDS011;1608;50.860;13.466;2022-12-18T12:04:15;12.80;;;5.47;;
3193;SDS011;1608;50.860;13.466;2022-12-18T12:06:58;10.50;;;4.07;;
3193;SDS011;1608;50.860;13.466;2022-12-18T12:09:33;10.60;;;4.77;;
3193;SDS011;1608;50.860;13.466;2022-12-18T12:12:16;10.33;;;5.60;;
3193;SDS011;1608;50.860;13.466;2022-12-18T12:14:53;13.90;;;9.43;;
3193;SDS011;1608;50.860;13.466;2022-12-18T12:17:28;13.87;;;6.07;;
3193;SDS011;1608;50.860;13.466;2022-12-18T12:20:06;14.40;;;5.90;;
3193;SDS011;1608;50.860;13.466;2022-12-18T12:22:43;11.67;;;4.93;;
3193;SDS011;1608;50.860;13.466;2022-12-18T12:25:19;16.00;;;7.57;;
3193;SDS011;1608;50.860;13.466;2022-12-18T12:27:57;22.37;;;8.30;;
3193;SDS011;1608;50.860;13.466;2022-12-18T12:30:39;11.47;;;5.60;;
3193;SDS011;1608;50.860;13.466;2022-12-18T12:33:21;22.50;;;6.00;;
3193;SDS011;1608;50.860;13.466;2022-12-18T12:35:58;16.10;;;7.20;;
3193;SDS011;1608;50.860;13.466;2022-12-18T12:38:34;11.17;;;6.37;;
3193;SDS011;1608;50.860;13.466;2022-12-18T12:41:08;10.87;;;4.90;;
3193;SDS011;1608;50.860;13.466;2022-12-18T12:44:00;12.93;;;4.87;;
3193;SDS011;1608;50.860;13.466;2022-12-18T12:46:29;19.10;;;7.67;;
3193;SDS011;1608;50.860;13.466;2022-12-18T12:49:02;29.13;;;8.60;;
3193;SDS011;1608;50.860;13.466;2022-12-18T12:51:34;14.47;;;7.43;;
3193;SDS011;1608;50.860;13.466;2022-12-18T12:54:04;21.37;;;7.90;;
3193;SDS011;1608;50.860;13.466;2022-12-18T12:56:38;17.40;;;6.80;;
3193;SDS011;1608;50.860;13.466;2022-12-18T12:59:10;26.37;;;17.03;;
3193;SDS011;1608;50.860;13.466;2022-12-18T13:01:48;18.00;;;8.77;;
3193;SDS011;1608;50.860;13.466;2022-12-18T13:04:21;11.33;;;6.97;;
3193;SDS011;1608;50.860;13.466;2022-12-18T13:06:58;20.47;;;9.93;;
3193;SDS011;1608;50.860;13.466;2022-12-18T13:09:31;20.73;;;9.93;;
3193;SDS011;1608;50.860;13.466;2022-12-18T13:12:01;20.47;;;12.80;;
3193;SDS011;1608;50.860;13.466;2022-12-18T13:14:48;16.40;;;10.40;;
3193;SDS011;1608;50.860;13.466;2022-12-18T13:17:26;17.57;;;8.27;;
3193;SDS011;1608;50.860;13.466;2022-12-18T13:20:06;11.93;;;7.07;;
3193;SDS011;1608;50.860;13.466;2022-12-18T13:22:35;13.13;;;6.60;;
3193;SDS011;1608;50.860;13.466;2022-12-18T13:28:00;22.43;;;8.23;;
3193;SDS011;1608;50.860;13.466;2022-12-18T13:36:28;9.73;;;4.07;;
3193;SDS011;1608;50.860;13.466;2022-12-18T13:41:49;17.73;;;9.17;;
3193;SDS011;1608;50.860;13.466;2022-12-18T13:44:30;16.80;;;8.00;;
3193;SDS011;1608;50.860;13.466;2022-12-18T13:47:00;16.57;;;8.90;;
3193;SDS011;1608;50.860;13.466;2022-12-18T13:49:31;15.23;;;7.87;;
3193;SDS011;1608;50.860;13.466;2022-12-18T13:52:14;16.90;;;6.30;;
3193;SDS011;1608;50.860;13.466;2022-12-18T13:54:44;11.50;;;6.30;;
3193;SDS011;1608;50.860;13.466;2022-12-18T13:57:25;18.13;;;8.83;;
3193;SDS011;1608;50.860;13.466;2022-12-18T13:59:53;10.83;;;5.60;;
3193;SDS011;1608;50.860;13.466;2022-12-18T14:02:22;15.30;;;7.10;;
3193;SDS011;1608;50.860;13.466;2022-12-18T14:04:50;10.73;;;7.73;;
3193;SDS011;1608;50.860;13.466;2022-12-18T14:07:18;13.33;;;7.07;;
3193;SDS011;1608;50.860;13.466;2022-12-18T14:09:47;9.57;;;4.53;;
3193;SDS011;1608;50.860;13.466;2022-12-18T14:12:17;13.40;;;7.60;;
3193;SDS011;1608;50.860;13.466;2022-12-18T14:15:05;7.73;;;3.83;;
3193;SDS011;1608;50.860;13.466;2022-12-18T14:17:42;11.90;;;6.80;;
3193;SDS011;1608;50.860;13.466;2022-12-18T14:20:12;15.43;;;7.23;;
3193;SDS011;1608;50.860;13.466;2022-12-18T14:22:42;21.50;;;7.80;;
3193;SDS011;1608;50.860;13.466;2022-12-18T14:25:17;16.10;;;6.70;;
3193;SDS011;1608;50.860;13.466;2022-12-18T14:27:46;17.00;;;8.20;;
3193;SDS011;1608;50.860;13.466;2022-12-18T14:30:23;24.70;;;7.03;;
3193;SDS011;1608;50.860;13.466;2022-12-18T14:33:00;29.03;;;9.73;;
3193;SDS011;1608;50.860;13.466;2022-12-18T14:35:31;32.60;;;11.27;;
3193;SDS011;1608;50.860;13.466;2022-12-18T14:40:53;27.90;;;16.43;;
3193;SDS011;1608;50.860;13.466;2022-12-18T14:43:20;29.50;;;6.60;;
3193;SDS011;1608;50.860;13.466;2022-12-18T14:45:48;28.97;;;13.50;;
3193;SDS011;1608;50.860;13.466;2022-12-18T14:48:18;90.47;;;38.70;;
3193;SDS011;1608;50.860;13.466;2022-12-18T14:50:53;23.43;;;10.00;;
3193;SDS011;1608;50.860;13.466;2022-12-18T14:53:23;18.27;;;6.73;;
3193;SDS011;1608;50.860;13.466;2022-12-18T14:55:58;33.97;;;16.13;;
3193;SDS011;1608;50.860;13.466;2022-12-18T14:58:25;23.30;;;6.97;;
3193;SDS011;1608;50.860;13.466;2022-12-18T15:00:52;19.63;;;6.13;;
3193;SDS011;1608;50.860;13.466;2022-12-18T15:03:20;87.47;;;24.50;;
3193;SDS011;1608;50.860;13.466;2022-12-18T15:05:48;21.77;;;10.23;;
3193;SDS011;1608;50.860;13.466;2022-12-18T15:08:27;15.67;;;5.43;;
3193;SDS011;1608;50.860;13.466;2022-12-18T15:10:56;10.53;;;6.00;;
3193;SDS011;1608;50.860;13.466;2022-12-18T15:13:23;10.87;;;6.57;;
3193;SDS011;1608;50.860;13.466;2022-12-18T15:15:51;18.57;;;7.70;;
3193;SDS011;1608;50.860;13.466;2022-12-18T15:18:21;10.97;;;6.97;;
3193;SDS011;1608;50.860;13.466;2022-12-18T15:20:54;9.50;;;4.30;;
3193;SDS011;1608;50.860;13.466;2022-12-18T15:23:23;14.00;;;6.30;;
3193;SDS011;1608;50.860;13.466;2022-12-18T15:25:54;12.77;;;6.00;;